Latest Weather Observations for Robe Airport

IDS60801

Issued at 4:31 am CST Sunday 19 April 2015 (issued every 30 minutes, with the page automatically refreshed every 10 minutes)

About weather observations | Map of weather stations | Latest weather observations for SA | Other Formats
Station Details ID: 026105 Name: ROBE AIRFIELD Lat: -37.18 Lon: 139.81 Height: 3.0 m
Data from the previous 72 hours. | See also: Recent months at Robe Airport
Date/Time
CST
Temp
°C
App
Temp
°C
Dew
Point
Rel
Hum
%
Delta-T
°C
Wind Press
QNH
hPa
Press
MSL
hPa
Rain
since 9 am
mm
Dir
 
Spd
km/h
Gust
km/h
Spd
kts
Gust
kts
19/04:30am 10.8 5.4 4.5 65 2.8 S 22 32 12 17 1026.6 1026.6 2.6
19/04:00am 10.1 4.5 5.5 73 2.1 S 24 33 13 18 1026.2 1026.2 2.6
19/03:40am 9.7 3.8 7.3 85 1.1 SW 28 46 15 25 1026.0 1026.0 2.4
19/03:30am 10.9 4.6 7.4 79 1.7 SSW 30 46 16 25 1025.8 1025.8 2.0
19/03:00am 11.6 5.2 5.3 65 2.9 SSW 28 43 15 23 1025.3 1025.3 2.0
19/02:30am 11.4 6.4 4.4 62 3.1 SSW 20 37 11 20 1025.2 1025.2 2.0
19/02:08am 11.6 5.3 5.5 66 2.8 SSW 28 48 15 26 1025.2 1025.2 2.0
19/02:00am 11.7 4.4 5.3 65 2.9 S 33 48 18 26 1024.9 1024.9 2.0
19/01:30am 11.8 6.3 3.8 58 3.5 SSW 22 35 12 19 1024.6 1024.6 2.0
19/01:00am 11.6 6.0 5.5 66 2.8 S 24 33 13 18 1024.4 1024.4 2.0
19/12:30am 11.3 5.7 5.4 67 2.7 SSW 24 35 13 19 1024.1 1024.1 2.0
19/12:00am 12.3 6.5 4.5 59 3.5 SSW 24 37 13 20 1023.6 1023.6 2.0
 
Date/Time
CST
Temp
°C
App
Temp
°C
Dew
Point
Rel
Hum
%
Delta-T
°C
Wind Press
QNH
hPa
Press
MSL
hPa
Rain
since 9 am
mm
Dir
 
Spd
km/h
Gust
km/h
Spd
kts
Gust
kts
18/11:30pm 12.3 5.8 4.5 59 3.5 SSW 28 41 15 22 1023.3 1023.3 2.0
18/11:00pm 11.9 5.2 5.5 65 3.0 SW 30 41 16 22 1023.1 1023.1 2.0
18/10:30pm 12.3 6.2 5.0 61 3.3 SSW 26 39 14 21 1022.8 1022.8 2.0
18/10:00pm 12.4 6.8 5.6 63 3.2 SSW 24 43 13 23 1022.4 1022.4 2.0
18/09:30pm 12.4 6.4 6.9 69 2.6 SSW 28 43 15 23 1022.0 1022.0 2.0
18/09:00pm 13.0 7.2 6.1 63 3.3 SSW 26 41 14 22 1021.5 1021.5 2.0
18/08:30pm 12.1 6.9 5.7 65 3.0 SSW 22 33 12 18 1020.8 1020.8 2.0
18/08:02pm 12.1 5.6 6.6 69 2.6 SW 30 57 16 31 1020.5 1020.5 1.8
18/08:00pm 13.4 7.6 6.3 62 3.4 SW 26 57 14 31 1020.3 1020.3 1.4
18/07:30pm 13.0 7.8 5.4 60 3.5 SW 22 33 12 18 1019.8 1019.8 1.4
18/07:18pm 13.3 7.0 5.9 61 3.5 SW 28 46 15 25 1019.6 1019.6 1.4
18/07:00pm 13.0 8.0 6.4 64 3.1 SSW 22 43 12 23 1019.3 1019.3 1.4
18/06:30pm 13.1 7.6 6.0 62 3.3 SW 24 37 13 20 1018.6 1018.6 1.4
18/06:01pm 13.3 6.9 6.9 65 3.1 SW 30 50 16 27 1018.0 1018.0 1.4
18/06:00pm 13.3 7.1 6.2 62 3.4 SW 28 41 15 22 1018.0 1018.0 1.4
18/05:30pm 13.8 8.6 7.1 64 3.3 SW 24 37 13 20 1017.4 1017.4 1.4
18/05:00pm 14.1 7.9 6.0 58 3.9 SW 28 41 15 22 1016.7 1016.7 1.4
18/04:30pm 14.3 8.5 7.8 65 3.2 SW 28 43 15 23 1016.3 1016.3 1.4
18/04:00pm 14.1 9.3 8.7 70 2.7 SW 24 37 13 20 1015.7 1015.7 1.4
18/03:30pm 13.4 9.6 9.8 79 1.8 SW 20 30 11 16 1015.7 1015.7 1.4
18/03:00pm 13.9 10.1 9.1 73 2.4 SW 19 32 10 17 1015.2 1015.2 1.4
18/02:30pm 13.2 9.8 10.6 84 1.4 SW 19 28 10 15 1015.0 1015.0 1.4
18/02:00pm 13.1 8.8 12.2 94 0.5 SW 26 43 14 23 1014.5 1014.5 1.2
18/01:30pm 13.3 9.1 12.5 95 0.4 SW 26 43 14 23 1014.3 1014.3 1.0
18/01:00pm 13.6 9.2 12.8 95 0.4 SSW 28 37 15 20 1014.1 1014.1 0.6
18/12:50pm 13.8 9.2 12.4 91 0.8 SW 28 46 15 25 1014.0 1014.0 0.6
18/12:30pm 13.8 9.3 12.7 93 0.6 SSW 28 46 15 25 1013.8 1013.8 0.6
18/12:00pm 17.1 12.8 14.4 84 1.5 NW 30 46 16 25 1013.2 1013.2 0.0
18/11:30am 18.2 14.3 14.3 78 2.2 NW 28 43 15 23 1013.7 1013.7 0.0
18/11:00am 19.0 14.0 14.1 73 2.8 NW 33 46 18 25 1013.9 1013.9 0.0
18/10:30am 18.6 13.9 14.3 76 2.5 NW 32 44 17 24 1014.0 1014.0 0.0
18/10:00am 17.6 13.3 14.3 81 1.9 NW 30 43 16 23 1014.0 1014.0 0.0
18/09:30am 17.0 12.9 13.7 81 1.9 NW 28 41 15 22 1014.2 1014.2 0.0
18/09:00am 16.9 12.5 13.0 78 2.2 NW 28 39 15 21 1014.4 1014.4 0.0
18/08:30am 16.9 12.5 12.8 77 2.3 NW 28 41 15 22 1014.1 1014.1 0.0
18/08:00am 16.0 10.6 12.2 78 2.1 NW 32 43 17 23 1014.2 1014.2 0.0
18/07:30am 15.6 11.3 12.0 79 2.0 NW 26 35 14 19 1014.0 1014.0 0.0
18/07:00am 14.9 10.8 11.5 80 1.8 NW 24 33 13 18 1013.8 1013.8 0.0
18/06:30am 14.8 10.6 11.2 79 1.9 NW 24 33 13 18 1013.9 1013.9 0.0
18/06:00am 14.8 10.5 10.8 77 2.1 NW 24 35 13 19 1013.8 1013.8 0.0
18/05:30am 14.5 10.9 10.7 78 2.0 WNW 20 30 11 16 1013.7 1013.7 0.0
18/05:00am 14.0 10.9 10.4 79 1.9 NW 17 26 9 14 1013.5 1013.5 0.0
18/04:30am 14.0 10.3 10.0 77 2.1 NW 20 30 11 16 1013.5 1013.5 0.0
18/04:00am 13.5 10.2 9.6 77 2.0 WNW 17 22 9 12 1013.4 1013.4 0.0
18/03:30am 13.4 10.4 9.3 76 2.1 WNW 15 20 8 11 1013.6 1013.6 0.0
18/03:00am 13.6 10.5 8.7 72 2.5 WNW 15 22 8 12 1013.7 1013.7 0.0
18/02:30am 13.5 10.8 9.0 74 2.3 WNW 13 19 7 10 1014.0 1014.0 0.0
18/02:00am 13.6 10.9 8.9 73 2.4 WNW 13 20 7 11 1014.3 1014.3 0.0
18/01:30am 13.2 10.9 8.9 75 2.2 WNW 11 20 6 11 1014.5 1014.5 0.0
18/01:00am 12.5 10.7 9.3 81 1.6 W 9 13 5 7 1014.8 1014.8 0.0
18/12:30am 11.2 10.0 9.5 89 0.9 WNW 6 7 3 4 1015.0 1015.0 0.0
18/12:00am 11.1 9.7 8.8 86 1.1 WSW 6 6 3 3 1015.2 1015.2 0.0
 
Date/Time
CST
Temp
°C
App
Temp
°C
Dew
Point
Rel
Hum
%
Delta-T
°C
Wind Press
QNH
hPa
Press
MSL
hPa
Rain
since 9 am
mm
Dir
 
Spd
km/h
Gust
km/h
Spd
kts
Gust
kts
17/11:30pm 11.9 11.0 9.1 83 1.4 WSW 4 6 2 3 1015.5 1015.5 0.0
17/11:00pm 12.9 12.4 9.2 78 1.9 WSW 2 4 1 2 1015.9 1015.9 0.0
17/10:30pm 13.6 12.8 9.8 78 1.9 WSW 4 6 2 3 1016.5 1016.5 0.0
17/10:00pm 13.3 13.4 10.1 81 1.7 CALM 0 0 0 0 1016.7 1016.7 0.0
17/09:30pm 13.3 13.4 10.1 81 1.6 CALM 0 0 0 0 1016.6 1016.6 0.0
17/09:00pm 13.3 13.3 9.9 80 1.7 CALM 0 0 0 0 1016.5 1016.5 0.0
17/08:30pm 13.4 13.3 9.5 77 2.0 CALM 0 0 0 0 1016.4 1016.4 0.0
17/08:00pm 13.7 13.5 9.2 74 2.3 CALM 0 0 0 0 1016.5 1016.5 0.0
17/07:30pm 13.8 13.7 9.3 74 2.3 CALM 0 0 0 0 1016.8 1016.8 0.0
17/07:00pm 13.9 13.0 9.1 73 2.4 SW 4 9 2 5 1016.8 1016.8 0.0
17/06:30pm 14.0 12.8 9.6 75 2.3 SW 6 9 3 5 1016.8 1016.8 0.0
17/06:00pm 14.2 12.8 9.6 74 2.4 SW 7 11 4 6 1016.6 1016.6 0.0
17/05:30pm 14.4 13.0 9.6 73 2.5 SSW 7 11 4 6 1016.4 1016.4 0.0
17/05:00pm 14.5 13.1 9.5 72 2.6 SW 7 11 4 6 1016.7 1016.7 0.0
17/04:30pm 14.9 13.5 9.7 71 2.7 SW 7 9 4 5 1016.6 1016.6 0.0
17/04:00pm 15.3 13.1 9.4 68 3.0 SW 11 17 6 9 1016.5 1016.5 0.0
17/03:30pm 15.7 13.9 9.4 66 3.2 SW 9 17 5 9 1016.8 1016.8 0.0
17/03:00pm 16.4 15.5 9.3 63 3.7 WNW 4 11 2 6 1017.0 1017.0 0.0
17/02:30pm 16.8 16.1 8.5 58 4.2 NNE 2 4 1 2 1017.2 1017.2 0.0
17/02:00pm 16.2 14.6 8.2 59 4.0 NNE 6 11 3 6 1017.5 1017.5 0.0
17/01:30pm 16.1 14.5 8.6 61 3.8 N 7 9 4 5 1018.1 1018.1 0.0
17/01:00pm 15.9 13.8 8.4 61 3.8 NNE 9 15 5 8 1018.6 1018.6 0.0
17/12:30pm 16.0 13.5 8.2 60 3.9 NNE 11 15 6 8 1019.3 1019.3 0.0
17/12:00pm 15.6 13.5 8.1 61 3.8 ENE 9 15 5 8 1019.7 1019.7 0.0
17/11:30am 15.3 12.7 7.8 61 3.7 NE 11 15 6 8 1020.4 1020.4 0.0
17/11:00am 14.6 12.3 7.6 63 3.5 ENE 9 17 5 9 1021.2 1021.2 0.0
17/10:30am 14.0 11.5 8.0 67 3.0 ENE 11 15 6 8 1021.6 1021.6 0.0
17/10:00am 13.5 10.1 7.7 68 2.9 ESE 15 19 8 10 1021.9 1021.9 0.0
17/09:30am 13.2 10.6 7.9 70 2.6 ESE 11 19 6 10 1022.4 1022.4 0.0
17/09:00am 12.6 10.0 7.7 72 2.4 ESE 11 17 6 9 1022.6 1022.6 -
17/08:30am 12.1 9.8 7.6 74 2.2 ESE 9 15 5 8 1022.7 1022.7 -
17/08:00am 10.8 9.0 7.9 82 1.4 SE 7 9 4 5 1022.9 1022.9 -
17/07:30am 9.9 8.0 7.5 85 1.1 SE 7 9 4 5 1022.8 1022.8 -
17/07:00am 9.6 7.8 7.2 85 1.1 SSE 6 6 3 3 1023.2 1023.2 -
17/06:30am 9.4 7.9 7.0 85 1.1 SE 4 6 2 3 1023.4 1023.4 -
17/06:00am 9.2 7.4 7.2 87 0.9 SSE 6 7 3 4 1023.4 1023.4 -
17/05:30am 9.6 8.2 7.2 85 1.1 SSE 4 4 2 2 1023.4 1023.4 -
17/05:00am 9.4 7.9 7.0 85 1.1 SSE 4 6 2 3 1023.3 1023.3 -
17/04:30am 10.0 8.1 7.4 84 1.2 SSE 7 9 4 5 1023.4 1023.4 -
17/04:00am 9.9 7.6 7.3 84 1.2 SSE 9 11 5 6 1023.3 1023.3 -
17/03:30am 9.8 7.8 7.2 84 1.2 SSE 7 9 4 5 1023.2 1023.2 -
17/03:00am 9.3 7.3 6.9 85 1.1 SSE 7 9 4 5 1023.4 1023.4 0.0
17/02:30am 10.1 8.1 7.3 83 1.3 SSE 7 11 4 6 1023.9 1023.9 -
17/02:00am 9.5 7.5 6.9 84 1.2 SSE 7 7 4 4 1024.3 1024.3 -
17/01:30am 10.1 8.3 7.2 82 1.4 SSE 6 7 3 4 1024.2 1024.2 -
17/01:00am 10.3 8.5 7.2 81 1.5 E 6 7 3 4 1024.0 1024.0 -
17/12:30am 10.3 8.5 7.0 80 1.6 E 6 7 3 4 1024.2 1024.2 -
17/12:00am 10.5 8.6 7.4 81 1.5 ESE 7 9 4 5 1024.8 1024.8 -
 
Date/Time
CST
Temp
°C
App
Temp
°C
Dew
Point
Rel
Hum
%
Delta-T
°C
Wind Press
QNH
hPa
Press
MSL
hPa
Rain
since 9 am
mm
Dir
 
Spd
km/h
Gust
km/h
Spd
kts
Gust
kts
16/11:30pm 10.5 8.8 7.4 81 1.5 ESE 6 9 3 5 1025.4 1025.4 -
16/11:00pm 10.8 9.1 7.7 81 1.5 SE 6 7 3 4 1025.9 1025.9 -
16/10:30pm 10.9 9.2 7.6 80 1.6 ESE 6 7 3 4 1026.2 1026.2 -
16/10:00pm 11.3 9.7 7.8 79 1.7 ESE 6 7 3 4 1026.2 1026.2 -
16/09:30pm 11.8 10.7 8.3 79 1.7 SE 4 6 2 3 1026.6 1026.6 -
16/09:00pm 12.3 10.8 8.6 78 1.8 SE 6 7 3 4 1026.6 1026.6 0.0
16/08:30pm 12.5 11.0 8.6 77 1.9 SSE 6 7 3 4 1026.4 1026.4 -
16/08:00pm 12.9 10.9 8.6 75 2.1 SSE 9 13 5 7 1026.1 1026.1 -
16/07:30pm 12.6 10.1 8.3 75 2.1 SSE 11 15 6 8 1026.1 1026.1 -
16/07:00pm 12.9 10.4 8.2 73 2.3 SSE 11 15 6 8 1026.1 1026.1 -
16/06:30pm 13.3 10.8 8.2 71 2.5 SSE 11 15 6 8 1026.0 1026.0 -
16/06:00pm 13.5 11.3 7.9 69 2.7 SSE 9 15 5 8 1025.6 1025.6 -
16/05:30pm 13.8 10.8 7.8 67 2.9 SSE 13 17 7 9 1025.5 1025.5 -
16/05:00pm 14.3 10.9 7.6 64 3.3 SSE 15 22 8 12 1025.3 1025.3 -
16/04:30pm 14.6 11.6 7.6 63 3.4 SSE 13 19 7 10 1025.5 1025.5 -
16/04:00pm 14.9 11.2 7.9 63 3.5 S 17 20 9 11 1026.1 1026.1 -
16/03:30pm 15.2 11.6 8.2 63 3.5 S 17 22 9 12 1026.3 1026.3 -
16/03:00pm 15.6 12.4 8.4 62 3.6 S 15 22 8 12 1026.3 1026.3 -
16/02:30pm 15.9 12.3 8.2 60 3.9 S 17 24 9 13 1026.0 1026.0 -
16/02:00pm 16.1 12.1 8.3 60 4.0 SSW 19 24 10 13 1025.7 1025.7 -
16/01:30pm 16.1 12.8 8.1 59 4.0 S 15 22 8 12 1025.6 1025.6 -
16/01:00pm 16.5 14.1 8.5 59 4.1 SSW 11 19 6 10 1025.8 1025.8 -
16/12:30pm 16.9 14.9 8.8 59 4.1 SSW 9 15 5 8 1026.3 1026.3 -
16/11:30am 16.5 14.6 9.0 61 3.8 S 9 15 5 8 1027.1 1027.1 0.0
16/11:00am 16.1 14.1 8.8 62 3.7 SSW 9 15 5 8 1027.5 1027.5 0.0
16/10:30am 16.0 14.3 8.5 61 3.8 SSE 7 15 4 8 1027.8 1027.8 0.0
16/10:00am 16.0 14.2 8.0 59 4.0 SSE 7 13 4 7 1027.8 1027.8 0.0
16/09:30am 15.6 13.2 8.6 63 3.5 SSE 11 17 6 9 1027.8 1027.8 0.0
16/09:00am 15.2 12.4 8.7 65 3.3 SSE 13 17 7 9 1027.7 1027.7 0.0
16/08:30am 14.6 12.6 8.8 68 2.9 SSE 9 13 5 7 1027.5 1027.5 0.0
16/08:00am 14.3 12.3 8.7 69 2.8 SSE 9 13 5 7 1027.4 1027.4 0.0
16/07:30am 13.5 11.9 8.6 72 2.4 SSE 7 11 4 6 1026.5 1026.5 0.0
16/07:00am 13.5 10.3 8.4 71 2.5 SSE 15 19 8 10 1025.5 1025.5 0.0
16/06:30am 13.2 10.0 8.3 72 2.4 S 15 20 8 11 1025.5 1025.5 0.0
16/06:00am 13.8 10.7 8.8 72 2.5 SSW 15 22 8 12 1025.4 1025.4 0.0
16/05:30am 13.9 12.2 9.7 76 2.1 SSW 9 17 5 9 1025.2 1025.2 0.0
16/05:00am 13.1 12.0 10.6 85 1.3 S 7 13 4 7 1024.9 1024.9 0.0

Other Formats:

Comma delimited format used in spreadsheet applications
http://www.bom.gov.au/fwo/IDS60801/IDS60801.95816.axf

JavaScript Object Notation format (JSON) in row-major order
http://www.bom.gov.au/fwo/IDS60801/IDS60801.95816.json